sensor_id;sensor_type;location;lat;lon;timestamp;noise_LAeq;noise_LA_min;noise_LA_max;noise_LA01;noise_LA95
68945;Laerm;55984;48.790;8.990;2023-04-07T00:00:20;38.19;34.69;56.82;;
68945;Laerm;55984;48.790;8.990;2023-04-07T00:02:46;39.64;35.48;56.64;;
68945;Laerm;55984;48.790;8.990;2023-04-07T00:05:13;38.36;35.62;47.50;;
68945;Laerm;55984;48.790;8.990;2023-04-07T00:07:39;39.08;36.74;51.46;;
68945;Laerm;55984;48.790;8.990;2023-04-07T00:10:06;38.93;35.92;44.54;;
68945;Laerm;55984;48.790;8.990;2023-04-07T00:12:32;37.73;35.26;42.23;;
68945;Laerm;55984;48.790;8.990;2023-04-07T00:14:58;38.01;35.04;41.05;;
68945;Laerm;55984;48.790;8.990;2023-04-07T00:17:24;39.39;35.50;45.64;;
68945;Laerm;55984;48.790;8.990;2023-04-07T00:19:50;37.37;33.58;42.86;;
68945;Laerm;55984;48.790;8.990;2023-04-07T00:22:16;36.27;34.31;39.93;;
68945;Laerm;55984;48.790;8.990;2023-04-07T00:24:42;40.42;36.01;44.54;;
68945;Laerm;55984;48.790;8.990;2023-04-07T00:27:08;40.40;35.96;45.11;;
68945;Laerm;55984;48.790;8.990;2023-04-07T00:29:34;38.24;34.47;42.23;;
68945;Laerm;55984;48.790;8.990;2023-04-07T00:32:00;38.02;34.80;43.41;;
68945;Laerm;55984;48.790;8.990;2023-04-07T00:34:26;38.34;35.31;42.09;;
68945;Laerm;55984;48.790;8.990;2023-04-07T00:36:52;36.65;33.89;40.26;;
68945;Laerm;55984;48.790;8.990;2023-04-07T00:39:18;37.97;35.22;42.20;;
68945;Laerm;55984;48.790;8.990;2023-04-07T00:41:45;37.74;34.65;41.39;;
68945;Laerm;55984;48.790;8.990;2023-04-07T00:44:12;37.38;34.40;41.20;;
68945;Laerm;55984;48.790;8.990;2023-04-07T00:46:38;37.32;34.49;40.04;;
68945;Laerm;55984;48.790;8.990;2023-04-07T00:49:04;37.70;34.63;41.19;;
68945;Laerm;55984;48.790;8.990;2023-04-07T00:51:31;38.47;34.99;52.62;;
68945;Laerm;55984;48.790;8.990;2023-04-07T00:53:58;39.44;36.05;44.92;;
68945;Laerm;55984;48.790;8.990;2023-04-07T00:56:24;38.06;34.74;41.43;;
68945;Laerm;55984;48.790;8.990;2023-04-07T00:58:50;38.25;34.49;42.53;;
68945;Laerm;55984;48.790;8.990;2023-04-07T01:04:38;36.72;33.92;40.15;;
68945;Laerm;55984;48.790;8.990;2023-04-07T01:07:15;40.31;36.25;48.30;;
68945;Laerm;55984;48.790;8.990;2023-04-07T01:09:49;39.60;35.52;47.64;;
68945;Laerm;55984;48.790;8.990;2023-04-07T01:12:35;39.01;35.60;44.70;;
68945;Laerm;55984;48.790;8.990;2023-04-07T01:15:10;38.44;35.73;44.59;;
68945;Laerm;55984;48.790;8.990;2023-04-07T01:17:41;39.37;36.21;46.08;;
68945;Laerm;55984;48.790;8.990;2023-04-07T01:20:11;40.43;35.60;56.67;;
68945;Laerm;55984;48.790;8.990;2023-04-07T01:22:45;39.24;35.90;44.04;;
68945;Laerm;55984;48.790;8.990;2023-04-07T01:25:17;37.73;34.69;41.68;;
68945;Laerm;55984;48.790;8.990;2023-04-07T01:30:40;38.63;36.42;42.00;;
68945;Laerm;55984;48.790;8.990;2023-04-07T01:33:09;38.59;36.17;42.21;;
68945;Laerm;55984;48.790;8.990;2023-04-07T01:35:36;38.61;36.03;44.04;;
68945;Laerm;55984;48.790;8.990;2023-04-07T01:38:04;39.69;36.63;44.61;;
68945;Laerm;55984;48.790;8.990;2023-04-07T01:40:32;39.05;36.08;42.43;;
68945;Laerm;55984;48.790;8.990;2023-04-07T01:42:59;39.84;36.35;46.02;;
68945;Laerm;55984;48.790;8.990;2023-04-07T01:45:26;39.07;35.98;42.02;;
68945;Laerm;55984;48.790;8.990;2023-04-07T01:47:53;42.22;38.33;48.94;;
68945;Laerm;55984;48.790;8.990;2023-04-07T01:50:20;40.28;37.53;42.61;;
68945;Laerm;55984;48.790;8.990;2023-04-07T01:52:46;39.44;36.67;42.71;;
68945;Laerm;55984;48.790;8.990;2023-04-07T01:55:13;39.74;37.12;45.49;;
68945;Laerm;55984;48.790;8.990;2023-04-07T01:57:38;40.44;37.69;47.58;;
68945;Laerm;55984;48.790;8.990;2023-04-07T02:00:05;40.17;37.05;46.30;;
68945;Laerm;55984;48.790;8.990;2023-04-07T02:02:35;39.69;36.89;45.59;;
68945;Laerm;55984;48.790;8.990;2023-04-07T02:05:07;38.11;35.08;41.76;;
68945;Laerm;55984;48.790;8.990;2023-04-07T02:07:40;39.52;36.10;45.93;;
68945;Laerm;55984;48.790;8.990;2023-04-07T02:10:11;39.82;37.00;43.95;;
68945;Laerm;55984;48.790;8.990;2023-04-07T02:12:38;40.22;37.41;43.82;;
68945;Laerm;55984;48.790;8.990;2023-04-07T02:15:07;39.23;36.36;47.82;;
68945;Laerm;55984;48.790;8.990;2023-04-07T02:17:35;39.52;36.97;43.55;;
68945;Laerm;55984;48.790;8.990;2023-04-07T02:20:02;39.65;36.83;42.43;;
68945;Laerm;55984;48.790;8.990;2023-04-07T02:22:29;40.18;38.22;44.23;;
68945;Laerm;55984;48.790;8.990;2023-04-07T02:24:55;40.35;38.10;44.87;;
68945;Laerm;55984;48.790;8.990;2023-04-07T02:27:21;39.21;35.92;46.60;;
68945;Laerm;55984;48.790;8.990;2023-04-07T02:29:47;40.36;37.51;43.63;;
68945;Laerm;55984;48.790;8.990;2023-04-07T02:32:13;39.16;36.94;41.82;;
68945;Laerm;55984;48.790;8.990;2023-04-07T02:34:39;40.36;36.88;46.15;;
68945;Laerm;55984;48.790;8.990;2023-04-07T02:37:06;38.40;35.95;41.70;;
68945;Laerm;55984;48.790;8.990;2023-04-07T02:39:32;39.14;36.85;43.23;;
68945;Laerm;55984;48.790;8.990;2023-04-07T02:41:57;38.60;36.18;41.11;;
68945;Laerm;55984;48.790;8.990;2023-04-07T02:44:23;40.46;37.20;45.59;;
68945;Laerm;55984;48.790;8.990;2023-04-07T02:46:49;40.08;38.04;44.01;;
68945;Laerm;55984;48.790;8.990;2023-04-07T02:49:16;39.37;35.11;43.34;;
68945;Laerm;55984;48.790;8.990;2023-04-07T02:51:42;38.06;35.25;41.11;;
68945;Laerm;55984;48.790;8.990;2023-04-07T02:54:07;38.42;35.55;42.08;;
68945;Laerm;55984;48.790;8.990;2023-04-07T02:56:34;38.70;35.53;42.69;;
68945;Laerm;55984;48.790;8.990;2023-04-07T02:59:00;38.63;35.76;41.98;;
68945;Laerm;55984;48.790;8.990;2023-04-07T03:01:26;39.99;36.73;44.79;;
68945;Laerm;55984;48.790;8.990;2023-04-07T03:03:52;39.28;36.17;44.58;;
68945;Laerm;55984;48.790;8.990;2023-04-07T03:06:18;38.43;36.42;41.08;;
68945;Laerm;55984;48.790;8.990;2023-04-07T03:08:44;38.50;36.24;44.46;;
68945;Laerm;55984;48.790;8.990;2023-04-07T03:11:10;38.21;35.53;45.78;;
68945;Laerm;55984;48.790;8.990;2023-04-07T03:13:36;39.09;36.78;41.95;;
68945;Laerm;55984;48.790;8.990;2023-04-07T03:16:02;38.92;36.45;42.06;;
68945;Laerm;55984;48.790;8.990;2023-04-07T03:18:28;38.25;35.90;45.98;;
68945;Laerm;55984;48.790;8.990;2023-04-07T03:20:54;39.12;36.36;43.19;;
68945;Laerm;55984;48.790;8.990;2023-04-07T03:23:20;40.23;36.74;44.18;;
68945;Laerm;55984;48.790;8.990;2023-04-07T03:25:48;39.52;36.76;44.31;;
68945;Laerm;55984;48.790;8.990;2023-04-07T03:28:14;39.76;37.28;42.74;;
68945;Laerm;55984;48.790;8.990;2023-04-07T03:30:40;38.81;35.55;42.51;;
68945;Laerm;55984;48.790;8.990;2023-04-07T03:33:06;39.00;36.05;44.42;;
68945;Laerm;55984;48.790;8.990;2023-04-07T03:35:31;38.70;36.06;42.77;;
68945;Laerm;55984;48.790;8.990;2023-04-07T03:38:04;39.17;36.83;42.22;;
68945;Laerm;55984;48.790;8.990;2023-04-07T03:40:30;39.96;35.92;50.35;;
68945;Laerm;55984;48.790;8.990;2023-04-07T03:42:57;39.15;36.93;43.49;;
68945;Laerm;55984;48.790;8.990;2023-04-07T03:45:23;39.04;36.93;41.60;;
68945;Laerm;55984;48.790;8.990;2023-04-07T03:47:49;38.44;35.84;42.37;;
68945;Laerm;55984;48.790;8.990;2023-04-07T03:50:15;36.93;34.85;39.60;;
68945;Laerm;55984;48.790;8.990;2023-04-07T03:52:41;38.43;35.17;44.42;;
68945;Laerm;55984;48.790;8.990;2023-04-07T03:55:07;38.56;35.66;42.30;;
68945;Laerm;55984;48.790;8.990;2023-04-07T03:57:33;38.96;36.44;41.74;;
68945;Laerm;55984;48.790;8.990;2023-04-07T03:59:59;38.78;36.30;42.83;;
68945;Laerm;55984;48.790;8.990;2023-04-07T04:02:25;38.46;36.31;41.37;;
68945;Laerm;55984;48.790;8.990;2023-04-07T04:04:51;38.22;35.45;41.23;;
68945;Laerm;55984;48.790;8.990;2023-04-07T04:07:17;42.56;36.80;57.52;;
68945;Laerm;55984;48.790;8.990;2023-04-07T04:09:43;43.33;37.13;57.99;;
68945;Laerm;55984;48.790;8.990;2023-04-07T04:12:09;41.35;37.80;48.63;;
68945;Laerm;55984;48.790;8.990;2023-04-07T04:14:35;45.49;38.12;59.36;;
68945;Laerm;55984;48.790;8.990;2023-04-07T04:17:01;52.34;38.79;67.21;;
68945;Laerm;55984;48.790;8.990;2023-04-07T04:19:29;56.09;38.74;65.32;;
68945;Laerm;55984;48.790;8.990;2023-04-07T04:21:55;56.08;39.06;67.29;;
68945;Laerm;55984;48.790;8.990;2023-04-07T04:24:21;55.02;38.20;66.60;;
68945;Laerm;55984;48.790;8.990;2023-04-07T04:26:47;54.14;39.49;67.99;;
68945;Laerm;55984;48.790;8.990;2023-04-07T04:29:12;51.77;39.30;66.34;;
68945;Laerm;55984;48.790;8.990;2023-04-07T04:31:38;51.47;39.02;67.16;;
68945;Laerm;55984;48.790;8.990;2023-04-07T04:34:04;43.60;38.50;55.82;;
68945;Laerm;55984;48.790;8.990;2023-04-07T04:36:30;45.96;38.56;58.09;;
68945;Laerm;55984;48.790;8.990;2023-04-07T04:38:56;45.16;37.87;59.03;;
68945;Laerm;55984;48.790;8.990;2023-04-07T04:41:22;43.51;38.41;56.12;;
68945;Laerm;55984;48.790;8.990;2023-04-07T04:43:48;43.62;37.71;56.43;;
68945;Laerm;55984;48.790;8.990;2023-04-07T04:46:16;41.34;37.15;51.43;;
68945;Laerm;55984;48.790;8.990;2023-04-07T04:48:41;41.75;37.41;53.60;;
68945;Laerm;55984;48.790;8.990;2023-04-07T04:51:07;42.22;37.63;54.31;;
68945;Laerm;55984;48.790;8.990;2023-04-07T04:53:33;41.08;37.93;52.37;;
68945;Laerm;55984;48.790;8.990;2023-04-07T04:55:59;42.94;38.32;56.21;;
68945;Laerm;55984;48.790;8.990;2023-04-07T04:58:25;41.81;38.34;52.24;;
68945;Laerm;55984;48.790;8.990;2023-04-07T05:00:54;41.25;38.07;54.91;;
68945;Laerm;55984;48.790;8.990;2023-04-07T05:03:25;44.49;37.57;57.46;;
68945;Laerm;55984;48.790;8.990;2023-04-07T05:05:51;41.37;37.88;53.62;;
68945;Laerm;55984;48.790;8.990;2023-04-07T05:08:17;40.51;37.93;48.54;;
68945;Laerm;55984;48.790;8.990;2023-04-07T05:10:43;40.05;37.18;49.25;;
68945;Laerm;55984;48.790;8.990;2023-04-07T05:13:08;43.81;37.91;60.85;;
68945;Laerm;55984;48.790;8.990;2023-04-07T05:15:34;40.32;37.41;48.70;;
68945;Laerm;55984;48.790;8.990;2023-04-07T05:18:00;40.42;37.57;47.12;;
68945;Laerm;55984;48.790;8.990;2023-04-07T05:20:26;41.41;37.55;50.95;;
68945;Laerm;55984;48.790;8.990;2023-04-07T05:22:52;41.83;38.00;55.49;;
68945;Laerm;55984;48.790;8.990;2023-04-07T05:25:18;41.86;37.95;51.31;;
68945;Laerm;55984;48.790;8.990;2023-04-07T05:27:44;45.91;38.72;61.31;;
68945;Laerm;55984;48.790;8.990;2023-04-07T05:30:11;41.97;38.15;60.67;;
68945;Laerm;55984;48.790;8.990;2023-04-07T05:32:37;41.26;38.71;50.14;;
68945;Laerm;55984;48.790;8.990;2023-04-07T05:35:03;42.93;38.48;56.19;;
68945;Laerm;55984;48.790;8.990;2023-04-07T05:37:29;44.37;38.14;53.42;;
68945;Laerm;55984;48.790;8.990;2023-04-07T05:39:55;42.33;38.04;54.19;;
68945;Laerm;55984;48.790;8.990;2023-04-07T05:42:21;42.60;37.96;53.36;;
68945;Laerm;55984;48.790;8.990;2023-04-07T05:44:47;43.92;37.24;64.16;;
68945;Laerm;55984;48.790;8.990;2023-04-07T05:47:13;40.14;37.35;52.55;;
68945;Laerm;55984;48.790;8.990;2023-04-07T05:49:39;42.96;37.64;59.86;;
68945;Laerm;55984;48.790;8.990;2023-04-07T05:52:11;40.22;37.08;55.59;;
68945;Laerm;55984;48.790;8.990;2023-04-07T05:54:36;47.77;38.82;59.57;;
68945;Laerm;55984;48.790;8.990;2023-04-07T05:57:05;45.57;37.50;55.89;;
68945;Laerm;55984;48.790;8.990;2023-04-07T05:59:31;42.52;37.63;55.35;;
68945;Laerm;55984;48.790;8.990;2023-04-07T06:01:57;41.40;37.17;50.62;;
68945;Laerm;55984;48.790;8.990;2023-04-07T06:04:23;40.87;36.72;51.75;;
68945;Laerm;55984;48.790;8.990;2023-04-07T06:06:49;44.55;37.13;70.51;;
68945;Laerm;55984;48.790;8.990;2023-04-07T06:09:16;41.11;36.77;56.51;;
68945;Laerm;55984;48.790;8.990;2023-04-07T06:11:42;47.35;37.16;66.29;;
68945;Laerm;55984;48.790;8.990;2023-04-07T06:14:08;51.35;37.13;68.85;;
68945;Laerm;55984;48.790;8.990;2023-04-07T06:16:34;41.25;37.17;54.73;;
68945;Laerm;55984;48.790;8.990;2023-04-07T06:19:06;43.40;37.41;56.20;;
68945;Laerm;55984;48.790;8.990;2023-04-07T06:21:32;42.82;37.30;56.45;;
68945;Laerm;55984;48.790;8.990;2023-04-07T06:23:58;47.62;37.39;68.61;;
68945;Laerm;55984;48.790;8.990;2023-04-07T06:26:25;40.68;37.63;51.15;;
68945;Laerm;55984;48.790;8.990;2023-04-07T06:28:51;41.04;38.06;52.00;;
68945;Laerm;55984;48.790;8.990;2023-04-07T06:31:17;43.23;36.95;52.36;;
68945;Laerm;55984;48.790;8.990;2023-04-07T06:33:44;49.22;37.01;73.68;;
68945;Laerm;55984;48.790;8.990;2023-04-07T06:36:10;48.27;37.34;65.02;;
68945;Laerm;55984;48.790;8.990;2023-04-07T06:38:37;48.70;36.88;67.61;;
68945;Laerm;55984;48.790;8.990;2023-04-07T06:41:03;45.76;36.55;67.85;;
68945;Laerm;55984;48.790;8.990;2023-04-07T06:43:29;45.41;37.02;59.51;;
68945;Laerm;55984;48.790;8.990;2023-04-07T06:45:56;45.94;36.60;70.05;;
68945;Laerm;55984;48.790;8.990;2023-04-07T06:48:22;46.59;36.29;68.39;;
68945;Laerm;55984;48.790;8.990;2023-04-07T06:50:48;48.28;35.68;71.08;;
68945;Laerm;55984;48.790;8.990;2023-04-07T06:53:14;40.17;35.79;54.67;;
68945;Laerm;55984;48.790;8.990;2023-04-07T06:55:40;46.51;35.58;60.23;;
68945;Laerm;55984;48.790;8.990;2023-04-07T06:58:06;48.40;36.30;73.25;;
68945;Laerm;55984;48.790;8.990;2023-04-07T07:00:32;39.75;35.86;56.19;;
68945;Laerm;55984;48.790;8.990;2023-04-07T07:02:58;48.95;36.67;65.07;;
68945;Laerm;55984;48.790;8.990;2023-04-07T07:05:24;40.22;36.41;49.32;;
68945;Laerm;55984;48.790;8.990;2023-04-07T07:07:49;41.73;36.29;54.07;;
68945;Laerm;55984;48.790;8.990;2023-04-07T07:10:16;39.60;35.79;52.80;;
68945;Laerm;55984;48.790;8.990;2023-04-07T07:12:42;39.27;35.74;51.10;;
68945;Laerm;55984;48.790;8.990;2023-04-07T07:15:08;40.04;35.98;51.13;;
68945;Laerm;55984;48.790;8.990;2023-04-07T07:17:34;40.45;36.35;55.22;;
68945;Laerm;55984;48.790;8.990;2023-04-07T07:20:00;41.86;35.95;59.06;;
68945;Laerm;55984;48.790;8.990;2023-04-07T07:22:26;46.72;36.48;60.82;;
68945;Laerm;55984;48.790;8.990;2023-04-07T07:24:51;42.32;36.38;63.10;;
68945;Laerm;55984;48.790;8.990;2023-04-07T07:27:17;39.84;36.37;49.85;;
68945;Laerm;55984;48.790;8.990;2023-04-07T07:29:43;40.34;37.00;50.14;;
68945;Laerm;55984;48.790;8.990;2023-04-07T07:32:09;40.00;37.12;46.87;;
68945;Laerm;55984;48.790;8.990;2023-04-07T07:34:35;42.83;37.76;59.73;;
68945;Laerm;55984;48.790;8.990;2023-04-07T07:37:01;40.49;37.40;53.20;;
68945;Laerm;55984;48.790;8.990;2023-04-07T07:39:27;47.97;37.10;61.90;;
68945;Laerm;55984;48.790;8.990;2023-04-07T07:41:54;41.31;37.03;55.87;;
68945;Laerm;55984;48.790;8.990;2023-04-07T07:44:20;40.13;36.78;56.82;;
68945;Laerm;55984;48.790;8.990;2023-04-07T07:46:48;41.61;37.99;53.62;;
68945;Laerm;55984;48.790;8.990;2023-04-07T07:49:13;41.53;36.57;53.58;;
68945;Laerm;55984;48.790;8.990;2023-04-07T07:51:40;39.52;35.39;61.47;;
68945;Laerm;55984;48.790;8.990;2023-04-07T07:54:06;38.37;35.15;53.32;;
68945;Laerm;55984;48.790;8.990;2023-04-07T07:56:31;42.90;36.29;57.66;;
68945;Laerm;55984;48.790;8.990;2023-04-07T07:58:57;41.54;36.73;54.97;;
68945;Laerm;55984;48.790;8.990;2023-04-07T08:01:23;43.64;38.21;54.16;;
68945;Laerm;55984;48.790;8.990;2023-04-07T08:03:49;42.01;37.37;52.52;;
68945;Laerm;55984;48.790;8.990;2023-04-07T08:06:15;42.32;37.92;52.32;;
68945;Laerm;55984;48.790;8.990;2023-04-07T08:08:42;42.86;39.01;57.82;;
68945;Laerm;55984;48.790;8.990;2023-04-07T08:11:07;40.93;36.51;51.11;;
68945;Laerm;55984;48.790;8.990;2023-04-07T08:13:33;44.41;37.36;59.48;;
68945;Laerm;55984;48.790;8.990;2023-04-07T08:15:59;39.64;37.22;52.95;;
68945;Laerm;55984;48.790;8.990;2023-04-07T08:18:25;40.97;37.07;49.44;;
68945;Laerm;55984;48.790;8.990;2023-04-07T08:20:51;47.06;39.52;57.74;;
68945;Laerm;55984;48.790;8.990;2023-04-07T08:23:17;41.38;37.32;49.46;;
68945;Laerm;55984;48.790;8.990;2023-04-07T08:25:43;45.79;38.49;59.43;;
68945;Laerm;55984;48.790;8.990;2023-04-07T08:28:09;43.90;37.18;57.10;;
68945;Laerm;55984;48.790;8.990;2023-04-07T08:30:35;38.51;36.43;43.09;;
68945;Laerm;55984;48.790;8.990;2023-04-07T08:33:02;39.10;36.18;47.72;;
68945;Laerm;55984;48.790;8.990;2023-04-07T08:35:28;47.65;37.09;73.91;;
68945;Laerm;55984;48.790;8.990;2023-04-07T08:37:54;41.27;36.52;53.35;;
68945;Laerm;55984;48.790;8.990;2023-04-07T08:40:20;47.35;36.31;64.47;;
68945;Laerm;55984;48.790;8.990;2023-04-07T08:42:47;43.06;37.40;62.12;;
68945;Laerm;55984;48.790;8.990;2023-04-07T08:45:15;42.10;37.77;56.17;;
68945;Laerm;55984;48.790;8.990;2023-04-07T08:47:43;46.48;37.52;65.20;;
68945;Laerm;55984;48.790;8.990;2023-04-07T08:50:13;41.97;36.84;52.91;;
68945;Laerm;55984;48.790;8.990;2023-04-07T08:55:12;39.59;36.50;48.72;;
68945;Laerm;55984;48.790;8.990;2023-04-07T08:57:38;39.45;35.66;51.80;;
68945;Laerm;55984;48.790;8.990;2023-04-07T09:00:05;39.03;35.93;52.22;;
68945;Laerm;55984;48.790;8.990;2023-04-07T09:02:38;40.40;37.06;52.25;;
68945;Laerm;55984;48.790;8.990;2023-04-07T09:05:06;44.10;36.40;65.49;;
68945;Laerm;55984;48.790;8.990;2023-04-07T09:07:34;39.29;35.37;49.70;;
68945;Laerm;55984;48.790;8.990;2023-04-07T09:10:01;43.38;36.43;58.42;;
68945;Laerm;55984;48.790;8.990;2023-04-07T09:12:28;41.05;37.44;51.74;;
68945;Laerm;55984;48.790;8.990;2023-04-07T09:14:54;41.37;37.63;56.16;;
68945;Laerm;55984;48.790;8.990;2023-04-07T09:17:20;40.18;37.24;46.80;;
68945;Laerm;55984;48.790;8.990;2023-04-07T09:19:47;41.54;37.40;55.70;;
68945;Laerm;55984;48.790;8.990;2023-04-07T09:22:13;43.02;38.61;51.97;;
68945;Laerm;55984;48.790;8.990;2023-04-07T09:24:40;45.88;37.74;58.93;;
68945;Laerm;55984;48.790;8.990;2023-04-07T09:27:22;41.86;37.21;53.04;;
68945;Laerm;55984;48.790;8.990;2023-04-07T09:29:48;47.32;37.60;62.40;;
68945;Laerm;55984;48.790;8.990;2023-04-07T09:32:36;41.20;36.17;51.25;;
68945;Laerm;55984;48.790;8.990;2023-04-07T09:35:03;41.58;37.96;47.88;;
68945;Laerm;55984;48.790;8.990;2023-04-07T09:37:28;40.49;36.75;47.82;;
68945;Laerm;55984;48.790;8.990;2023-04-07T09:39:54;41.63;35.53;51.85;;
68945;Laerm;55984;48.790;8.990;2023-04-07T09:42:20;42.83;37.06;51.01;;
68945;Laerm;55984;48.790;8.990;2023-04-07T09:44:46;40.01;35.88;51.76;;
68945;Laerm;55984;48.790;8.990;2023-04-07T09:47:12;40.05;35.41;50.11;;
68945;Laerm;55984;48.790;8.990;2023-04-07T09:49:52;40.30;35.52;52.59;;
68945;Laerm;55984;48.790;8.990;2023-04-07T09:52:24;45.91;34.04;67.39;;
68945;Laerm;55984;48.790;8.990;2023-04-07T09:54:51;37.84;34.06;47.52;;
68945;Laerm;55984;48.790;8.990;2023-04-07T09:57:17;36.85;34.06;48.61;;
68945;Laerm;55984;48.790;8.990;2023-04-07T09:59:45;46.77;33.89;62.50;;
68945;Laerm;55984;48.790;8.990;2023-04-07T10:02:12;49.87;35.39;61.57;;
68945;Laerm;55984;48.790;8.990;2023-04-07T10:04:38;47.27;35.29;64.87;;
68945;Laerm;55984;48.790;8.990;2023-04-07T10:07:05;38.81;34.53;50.06;;
68945;Laerm;55984;48.790;8.990;2023-04-07T10:09:32;40.56;34.51;59.20;;
68945;Laerm;55984;48.790;8.990;2023-04-07T10:11:58;43.09;34.53;57.62;;
68945;Laerm;55984;48.790;8.990;2023-04-07T10:14:27;38.36;34.00;45.96;;
68945;Laerm;55984;48.790;8.990;2023-04-07T10:16:53;44.16;36.05;55.52;;
68945;Laerm;55984;48.790;8.990;2023-04-07T10:19:19;42.75;35.53;58.70;;
68945;Laerm;55984;48.790;8.990;2023-04-07T10:21:49;41.25;34.63;57.93;;
68945;Laerm;55984;48.790;8.990;2023-04-07T10:27:09;40.78;35.14;60.80;;
68945;Laerm;55984;48.790;8.990;2023-04-07T10:29:41;41.47;35.68;55.49;;
68945;Laerm;55984;48.790;8.990;2023-04-07T10:32:08;45.79;36.25;63.86;;
68945;Laerm;55984;48.790;8.990;2023-04-07T10:37:13;42.77;36.75;68.68;;
68945;Laerm;55984;48.790;8.990;2023-04-07T10:39:42;41.43;36.97;53.40;;
68945;Laerm;55984;48.790;8.990;2023-04-07T10:45:04;45.50;36.48;54.40;;
68945;Laerm;55984;48.790;8.990;2023-04-07T10:47:30;41.85;36.42;53.77;;
68945;Laerm;55984;48.790;8.990;2023-04-07T10:52:43;39.64;36.22;51.34;;
68945;Laerm;55984;48.790;8.990;2023-04-07T11:00:38;42.32;37.44;55.83;;
68945;Laerm;55984;48.790;8.990;2023-04-07T11:03:11;47.13;37.69;57.38;;
68945;Laerm;55984;48.790;8.990;2023-04-07T11:05:41;46.75;38.86;58.56;;
68945;Laerm;55984;48.790;8.990;2023-04-07T11:08:07;47.62;39.57;60.55;;
68945;Laerm;55984;48.790;8.990;2023-04-07T11:10:34;48.87;39.01;66.22;;
68945;Laerm;55984;48.790;8.990;2023-04-07T11:13:03;50.48;36.42;66.20;;
68945;Laerm;55984;48.790;8.990;2023-04-07T11:15:29;53.22;38.10;69.15;;
68945;Laerm;55984;48.790;8.990;2023-04-07T11:18:16;53.85;37.19;69.41;;
68945;Laerm;55984;48.790;8.990;2023-04-07T11:20:46;52.00;36.67;67.36;;
68945;Laerm;55984;48.790;8.990;2023-04-07T11:23:14;40.74;35.87;52.08;;
68945;Laerm;55984;48.790;8.990;2023-04-07T11:25:46;40.54;34.84;57.35;;
68945;Laerm;55984;48.790;8.990;2023-04-07T11:28:12;39.17;35.12;49.81;;
68945;Laerm;55984;48.790;8.990;2023-04-07T11:30:44;37.53;34.86;48.42;;
68945;Laerm;55984;48.790;8.990;2023-04-07T11:33:19;38.84;34.80;51.00;;
68945;Laerm;55984;48.790;8.990;2023-04-07T11:35:59;39.21;34.56;54.82;;
68945;Laerm;55984;48.790;8.990;2023-04-07T11:38:27;38.50;34.55;50.47;;
68945;Laerm;55984;48.790;8.990;2023-04-07T11:40:54;37.76;34.41;49.92;;
68945;Laerm;55984;48.790;8.990;2023-04-07T11:43:25;39.37;34.66;53.47;;
68945;Laerm;55984;48.790;8.990;2023-04-07T11:46:07;38.28;35.05;52.35;;
68945;Laerm;55984;48.790;8.990;2023-04-07T11:48:34;41.64;34.50;53.65;;
68945;Laerm;55984;48.790;8.990;2023-04-07T11:51:00;40.77;34.31;59.50;;
68945;Laerm;55984;48.790;8.990;2023-04-07T11:53:35;42.25;34.59;62.80;;
68945;Laerm;55984;48.790;8.990;2023-04-07T11:56:06;42.97;35.80;61.73;;
68945;Laerm;55984;48.790;8.990;2023-04-07T11:58:35;56.04;39.67;75.64;;
68945;Laerm;55984;48.790;8.990;2023-04-07T12:01:05;57.91;44.38;78.97;;
68945;Laerm;55984;48.790;8.990;2023-04-07T12:03:36;61.75;43.48;83.20;;
68945;Laerm;55984;48.790;8.990;2023-04-07T12:06:03;48.46;38.07;70.94;;
68945;Laerm;55984;48.790;8.990;2023-04-07T12:08:44;46.20;38.46;63.85;;
68945;Laerm;55984;48.790;8.990;2023-04-07T12:11:10;46.03;38.66;61.72;;
68945;Laerm;55984;48.790;8.990;2023-04-07T12:13:37;43.44;38.38;55.24;;
68945;Laerm;55984;48.790;8.990;2023-04-07T12:16:03;47.40;38.49;65.52;;
68945;Laerm;55984;48.790;8.990;2023-04-07T12:18:30;40.56;37.46;55.85;;
68945;Laerm;55984;48.790;8.990;2023-04-07T12:20:56;42.80;38.28;57.79;;
68945;Laerm;55984;48.790;8.990;2023-04-07T12:23:23;41.71;38.82;52.86;;
68945;Laerm;55984;48.790;8.990;2023-04-07T12:25:49;42.57;38.83;55.98;;
68945;Laerm;55984;48.790;8.990;2023-04-07T12:28:14;44.27;39.17;54.76;;
68945;Laerm;55984;48.790;8.990;2023-04-07T12:30:41;44.93;39.70;57.38;;
68945;Laerm;55984;48.790;8.990;2023-04-07T12:33:08;44.60;38.15;66.81;;
68945;Laerm;55984;48.790;8.990;2023-04-07T12:35:34;41.67;38.00;55.38;;
68945;Laerm;55984;48.790;8.990;2023-04-07T12:38:00;41.59;37.92;58.28;;
68945;Laerm;55984;48.790;8.990;2023-04-07T12:40:27;47.42;40.36;67.68;;
68945;Laerm;55984;48.790;8.990;2023-04-07T12:42:53;46.57;40.45;67.56;;
68945;Laerm;55984;48.790;8.990;2023-04-07T12:45:22;42.38;39.08;57.92;;
68945;Laerm;55984;48.790;8.990;2023-04-07T12:47:48;47.40;40.29;63.57;;
68945;Laerm;55984;48.790;8.990;2023-04-07T12:50:13;44.20;39.78;60.20;;
68945;Laerm;55984;48.790;8.990;2023-04-07T12:52:40;42.61;40.09;52.64;;
68945;Laerm;55984;48.790;8.990;2023-04-07T12:55:16;46.37;40.08;59.44;;
68945;Laerm;55984;48.790;8.990;2023-04-07T12:57:44;46.49;40.25;61.18;;
68945;Laerm;55984;48.790;8.990;2023-04-07T13:00:11;44.76;38.65;61.49;;
68945;Laerm;55984;48.790;8.990;2023-04-07T13:02:37;42.59;39.28;52.45;;
68945;Laerm;55984;48.790;8.990;2023-04-07T13:05:03;41.83;38.56;56.37;;
68945;Laerm;55984;48.790;8.990;2023-04-07T13:07:30;41.91;38.53;54.83;;
68945;Laerm;55984;48.790;8.990;2023-04-07T13:09:56;42.93;38.03;56.34;;
68945;Laerm;55984;48.790;8.990;2023-04-07T13:12:22;43.46;37.29;61.71;;
68945;Laerm;55984;48.790;8.990;2023-04-07T13:14:48;41.70;36.61;56.33;;
68945;Laerm;55984;48.790;8.990;2023-04-07T13:17:14;38.94;36.68;47.28;;
68945;Laerm;55984;48.790;8.990;2023-04-07T13:19:41;45.53;36.72;56.55;;
68945;Laerm;55984;48.790;8.990;2023-04-07T13:22:07;41.72;36.77;56.93;;
68945;Laerm;55984;48.790;8.990;2023-04-07T13:24:33;42.23;35.98;56.01;;
68945;Laerm;55984;48.790;8.990;2023-04-07T13:26:59;44.94;36.92;58.36;;
68945;Laerm;55984;48.790;8.990;2023-04-07T13:29:25;41.83;36.85;58.55;;
68945;Laerm;55984;48.790;8.990;2023-04-07T13:31:50;49.80;37.95;65.00;;
68945;Laerm;55984;48.790;8.990;2023-04-07T13:34:17;54.73;36.61;67.91;;
68945;Laerm;55984;48.790;8.990;2023-04-07T13:36:43;56.29;39.12;69.04;;
68945;Laerm;55984;48.790;8.990;2023-04-07T13:39:10;50.79;38.82;67.84;;
68945;Laerm;55984;48.790;8.990;2023-04-07T13:41:37;44.04;37.82;62.78;;
68945;Laerm;55984;48.790;8.990;2023-04-07T13:44:03;44.54;38.01;60.71;;
68945;Laerm;55984;48.790;8.990;2023-04-07T13:46:29;41.34;37.89;51.46;;
68945;Laerm;55984;48.790;8.990;2023-04-07T13:48:56;42.63;37.82;58.85;;
68945;Laerm;55984;48.790;8.990;2023-04-07T13:51:22;51.00;38.33;67.08;;
68945;Laerm;55984;48.790;8.990;2023-04-07T13:53:48;41.30;38.59;49.18;;
68945;Laerm;55984;48.790;8.990;2023-04-07T13:56:14;41.05;38.30;53.32;;
68945;Laerm;55984;48.790;8.990;2023-04-07T13:58:40;45.04;38.14;60.02;;
68945;Laerm;55984;48.790;8.990;2023-04-07T14:01:06;47.27;38.58;61.26;;
68945;Laerm;55984;48.790;8.990;2023-04-07T14:03:32;46.50;37.93;60.82;;
68945;Laerm;55984;48.790;8.990;2023-04-07T14:05:59;48.18;38.71;60.51;;
68945;Laerm;55984;48.790;8.990;2023-04-07T14:08:26;47.18;40.00;61.19;;